createdAt,value
2022-09-25T00:00:26.838Z,1.65
2022-09-25T00:01:32.566Z,1.52
2022-09-25T00:02:34.819Z,1.30
2022-09-25T00:03:38.393Z,1.80
2022-09-25T00:04:41.832Z,1.67
2022-09-25T00:05:53.027Z,1.50
2022-09-25T00:06:56.674Z,1.52
2022-09-25T00:07:59.399Z,1.35
2022-09-25T00:09:03.402Z,1.60
2022-09-25T00:10:05.920Z,1.52
2022-09-25T00:11:11.544Z,1.48
2022-09-25T00:12:15.376Z,1.67
2022-09-25T00:13:22.757Z,1.42
2022-09-25T00:14:26.079Z,1.60
2022-09-25T00:15:31.234Z,1.38
2022-09-25T00:16:33.482Z,1.33
2022-09-25T00:17:38.127Z,1.40
2022-09-25T00:19:00.765Z,1.30
2022-09-25T00:20:05.124Z,1.10
2022-09-25T00:21:10.116Z,1.30
2022-09-25T00:22:13.882Z,0.90
2022-09-25T00:23:17.711Z,1.10
2022-09-25T00:24:22.818Z,0.90
2022-09-25T00:25:27.732Z,1.10
2022-09-25T00:26:32.856Z,1.10
2022-09-25T00:27:35.184Z,1.10
2022-09-25T00:28:40.096Z,0.80
2022-09-25T00:29:42.848Z,1.05
2022-09-25T00:30:46.145Z,1.08
2022-09-25T00:31:52.280Z,1.15
2022-09-25T00:32:55.145Z,1.02
2022-09-25T00:34:04.255Z,0.85
2022-09-25T00:35:11.130Z,0.80
2022-09-25T00:36:13.433Z,0.82
2022-09-25T00:37:17.327Z,1.00
2022-09-25T00:38:19.898Z,0.75
2022-09-25T00:39:24.381Z,0.90
2022-09-25T00:40:28.472Z,0.77
2022-09-25T00:41:32.278Z,0.68
2022-09-25T00:42:34.504Z,0.95
2022-09-25T00:43:48.419Z,0.90
2022-09-25T00:45:01.473Z,0.77
2022-09-25T00:46:07.859Z,0.65
2022-09-25T00:47:13.401Z,0.77
2022-09-25T00:48:17.156Z,0.95
2022-09-25T00:49:24.821Z,0.80
2022-09-25T00:50:31.059Z,0.70
2022-09-25T00:51:45.739Z,0.70
2022-09-25T00:52:48.602Z,0.80
2022-09-25T00:53:51.491Z,0.63
2022-09-25T00:55:01.773Z,0.95
2022-09-25T00:56:07.455Z,0.80
2022-09-25T00:57:23.275Z,0.80
2022-09-25T00:58:29.699Z,0.80
2022-09-25T00:59:39.915Z,0.90
2022-09-25T01:00:43.246Z,0.90
2022-09-25T01:01:48.569Z,1.00
2022-09-25T01:02:55.286Z,1.02
2022-09-25T01:03:57.886Z,0.80
2022-09-25T01:05:08.417Z,0.85
2022-09-25T01:06:12.913Z,0.80
2022-09-25T01:07:16.035Z,0.82
2022-09-25T01:08:25.630Z,0.88
2022-09-25T01:09:28.761Z,1.13
2022-09-25T01:10:32.729Z,1.10
2022-09-25T01:11:34.836Z,1.02
2022-09-25T01:12:41.630Z,0.93
2022-09-25T01:13:43.782Z,0.80
2022-09-25T01:14:46.216Z,1.30
2022-09-25T01:16:09.588Z,1.40
2022-09-25T01:17:29.845Z,1.35
2022-09-25T01:18:47.489Z,1.48
2022-09-25T01:19:53.109Z,1.98
2022-09-25T01:21:24.811Z,1.80
2022-09-25T01:22:56.890Z,2.40
2022-09-25T01:24:54.754Z,2.63
2022-09-25T01:26:15.921Z,2.67
2022-09-25T01:27:42.489Z,3.45
2022-09-25T01:29:12.177Z,4.07
2022-09-25T01:30:18.886Z,4.68
2022-09-25T01:32:00.811Z,4.88
2022-09-25T01:33:18.443Z,5.45
2022-09-25T01:34:28.533Z,5.88
2022-09-25T01:35:52.201Z,6.00
2022-09-25T01:37:10.315Z,5.40
2022-09-25T01:38:36.158Z,5.55
2022-09-25T01:39:47.502Z,5.32
2022-09-25T01:41:05.181Z,6.53
2022-09-25T01:42:17.977Z,5.28
2022-09-25T01:43:28.013Z,5.47
2022-09-25T01:44:35.749Z,6.18
2022-09-25T01:45:45.260Z,6.25
2022-09-25T01:46:52.102Z,5.75
2022-09-25T01:47:57.411Z,6.15
2022-09-25T01:49:09.633Z,5.63
2022-09-25T01:50:28.536Z,5.82
2022-09-25T01:52:48.097Z,5.00
2022-09-25T01:54:02.664Z,5.07
2022-09-25T01:55:32.913Z,5.47
2022-09-25T01:56:51.728Z,4.65
2022-09-25T01:59:20.179Z,4.22
2022-09-25T02:00:23.990Z,4.80
2022-09-25T02:01:32.398Z,4.32
2022-09-25T02:02:43.423Z,4.50
2022-09-25T02:03:59.198Z,4.07
2022-09-25T02:05:27.536Z,3.90
2022-09-25T02:06:33.669Z,3.40
2022-09-25T02:07:44.283Z,3.70
2022-09-25T02:08:55.852Z,3.90
2022-09-25T02:10:11.166Z,3.65
2022-09-25T02:11:14.457Z,3.08
2022-09-25T02:12:24.327Z,3.15
2022-09-25T02:13:34.733Z,2.85
2022-09-25T02:14:51.588Z,2.10
2022-09-25T02:15:58.057Z,1.90
2022-09-25T02:17:08.296Z,2.25
2022-09-25T02:18:33.086Z,2.15
2022-09-25T02:19:53.967Z,2.10
2022-09-25T02:21:07.837Z,1.40
2022-09-25T02:22:29.107Z,1.30
2022-09-25T02:23:53.545Z,1.40
2022-09-25T02:25:11.965Z,1.45
2022-09-25T02:26:23.628Z,1.35
2022-09-25T02:27:29.220Z,1.40
2022-09-25T02:28:32.245Z,1.25
2022-09-25T02:29:36.728Z,1.27
2022-09-25T02:30:41.357Z,1.20
2022-09-25T02:31:49.391Z,1.08
2022-09-25T02:32:52.287Z,1.35
2022-09-25T02:33:54.602Z,0.85
2022-09-25T02:34:58.647Z,1.00
2022-09-25T02:36:06.155Z,1.00
2022-09-25T02:37:16.656Z,0.90
2022-09-25T02:38:19.317Z,0.90
2022-09-25T02:39:24.757Z,0.80
2022-09-25T02:40:39.201Z,0.82
2022-09-25T02:41:49.977Z,0.80
2022-09-25T02:43:06.152Z,0.70
2022-09-25T02:44:32.960Z,0.80
2022-09-25T02:46:07.070Z,0.60
2022-09-25T02:47:28.968Z,0.63
2022-09-25T02:48:59.677Z,0.60
2022-09-25T02:50:25.992Z,0.70
2022-09-25T02:51:59.406Z,0.90
2022-09-25T02:53:20.760Z,0.50
2022-09-25T02:54:41.932Z,0.77
2022-09-25T02:55:56.977Z,0.45
2022-09-25T02:57:10.578Z,0.60
2022-09-25T02:58:56.533Z,0.50
2022-09-25T03:00:05.586Z,0.60
2022-09-25T03:02:14.301Z,0.50
2022-09-25T03:03:20.854Z,0.60
2022-09-25T03:04:25.344Z,0.45
2022-09-25T03:05:31.391Z,0.55
2022-09-25T03:06:33.985Z,0.50
2022-09-25T03:07:57.776Z,0.50
2022-09-25T03:09:02.819Z,0.50
2022-09-25T03:10:07.050Z,0.50
2022-09-25T03:11:16.128Z,0.52
2022-09-25T03:12:19.470Z,0.50
2022-09-25T03:13:34.830Z,0.60
2022-09-25T03:14:36.796Z,0.47
2022-09-25T03:15:39.227Z,0.50
2022-09-25T03:16:53.435Z,0.70
2022-09-25T03:17:55.430Z,0.40
2022-09-25T03:18:57.760Z,0.70
2022-09-25T03:20:03.851Z,0.77
2022-09-25T03:21:06.199Z,0.70
2022-09-25T03:22:08.380Z,0.57
2022-09-25T03:23:11.978Z,0.73
2022-09-25T03:24:17.046Z,0.60
2022-09-25T03:25:19.553Z,0.80
2022-09-25T03:26:21.656Z,0.85
2022-09-25T03:27:26.181Z,0.70
2022-09-25T03:28:28.318Z,0.60
2022-09-25T03:29:31.249Z,0.82
2022-09-25T03:30:34.197Z,0.90
2022-09-25T03:31:36.779Z,0.93
2022-09-25T03:32:42.414Z,0.80
2022-09-25T03:33:44.949Z,1.02
2022-09-25T03:34:47.210Z,1.20
2022-09-25T03:35:49.457Z,0.90
2022-09-25T03:36:51.459Z,1.05
2022-09-25T03:37:53.613Z,0.82
2022-09-25T03:38:59.929Z,0.90
2022-09-25T03:40:03.242Z,0.75
2022-09-25T03:41:09.258Z,0.88
2022-09-25T03:42:11.979Z,1.00
2022-09-25T03:44:15.225Z,1.00
2022-09-25T03:45:18.007Z,0.98
2022-09-25T03:46:23.407Z,0.90
2022-09-25T03:47:26.890Z,0.90
2022-09-25T03:48:29.101Z,1.00
2022-09-25T03:49:31.065Z,0.98
2022-09-25T03:50:33.292Z,0.93
2022-09-25T03:51:35.423Z,0.95
2022-09-25T03:52:37.823Z,1.10
2022-09-25T03:53:42.886Z,0.80
2022-09-25T03:54:48.372Z,0.80
2022-09-25T03:55:53.205Z,1.02
2022-09-25T03:56:55.321Z,1.10
2022-09-25T03:57:58.453Z,1.00
2022-09-25T03:59:00.829Z,1.00
2022-09-25T04:00:05.684Z,1.10
2022-09-25T04:01:15.322Z,1.00
2022-09-25T04:02:19.818Z,1.10
2022-09-25T04:03:22.396Z,1.00
2022-09-25T04:04:26.016Z,1.23
2022-09-25T04:05:28.292Z,1.25
2022-09-25T04:06:30.480Z,2.28
2022-09-25T04:07:32.692Z,1.23
2022-09-25T04:08:36.996Z,1.70
2022-09-25T04:09:38.991Z,1.30
2022-09-25T04:10:41.478Z,1.50
2022-09-25T04:11:45.250Z,1.42
2022-09-25T04:12:49.492Z,1.10
2022-09-25T04:13:53.419Z,1.17
2022-09-25T04:14:57.861Z,1.27
2022-09-25T04:16:04.740Z,1.45
2022-09-25T04:17:16.088Z,1.50
2022-09-25T04:18:19.486Z,1.40
2022-09-25T04:19:21.634Z,1.45
2022-09-25T04:21:41.078Z,1.48
2022-09-25T04:22:44.746Z,1.23
2022-09-25T04:24:07.053Z,1.50
2022-09-25T04:25:15.268Z,1.73
2022-09-25T04:26:18.170Z,1.50
2022-09-25T04:27:23.860Z,1.50
2022-09-25T04:28:27.171Z,1.50
2022-09-25T04:29:29.792Z,1.50
2022-09-25T04:30:34.663Z,1.40
2022-09-25T04:31:46.220Z,1.20
2022-09-25T04:33:07.643Z,1.50
2022-09-25T04:34:10.442Z,1.17
2022-09-25T04:35:14.447Z,5.53
2022-09-25T04:36:22.082Z,1.83
2022-09-25T04:37:29.184Z,2.00
2022-09-25T04:38:34.035Z,2.50
2022-09-25T04:39:36.468Z,4.10
2022-09-25T04:40:39.979Z,1.60
2022-09-25T04:41:43.576Z,1.95
2022-09-25T04:42:45.744Z,1.40
2022-09-25T04:43:48.455Z,1.63
2022-09-25T04:44:55.194Z,1.30
2022-09-25T04:46:06.016Z,1.30
2022-09-25T04:47:09.610Z,1.60
2022-09-25T04:48:12.388Z,1.63
2022-09-25T04:49:14.766Z,1.40
2022-09-25T04:50:17.090Z,1.45
2022-09-25T04:51:22.437Z,1.65
2022-09-25T04:52:25.724Z,2.72
2022-09-25T04:53:30.211Z,1.42
2022-09-25T04:54:32.572Z,1.50
2022-09-25T04:55:35.243Z,1.40
2022-09-25T04:56:38.422Z,1.20
2022-09-25T04:57:58.315Z,1.58
2022-09-25T04:59:04.274Z,1.52
2022-09-25T05:00:11.241Z,1.40
2022-09-25T05:01:16.162Z,1.63
2022-09-25T05:02:19.205Z,1.50
2022-09-25T05:03:22.675Z,1.38
2022-09-25T05:04:26.056Z,1.73
2022-09-25T05:05:31.156Z,1.35
2022-09-25T05:06:34.336Z,7.30
2022-09-25T05:07:36.722Z,1.45
2022-09-25T05:08:39.962Z,1.40
2022-09-25T05:09:43.009Z,1.40
2022-09-25T05:10:45.141Z,1.30
2022-09-25T05:11:47.673Z,0.93
2022-09-25T05:12:55.535Z,1.33
2022-09-25T05:13:58.309Z,1.42
2022-09-25T05:15:01.358Z,1.42
2022-09-25T05:16:04.163Z,1.45
2022-09-25T05:17:08.998Z,1.30
2022-09-25T05:18:23.439Z,1.30
2022-09-25T05:19:25.894Z,1.27
2022-09-25T05:20:29.603Z,1.17
2022-09-25T05:21:32.990Z,1.20
2022-09-25T05:22:35.297Z,1.15
2022-09-25T05:23:38.507Z,1.20
2022-09-25T05:24:40.776Z,1.35
2022-09-25T05:25:43.942Z,1.15
2022-09-25T05:26:48.405Z,1.10
2022-09-25T05:27:53.810Z,1.17
2022-09-25T05:28:57.193Z,1.20
2022-09-25T05:30:01.340Z,1.15
2022-09-25T05:31:05.999Z,1.15
2022-09-25T05:32:08.393Z,1.27
2022-09-25T05:33:10.519Z,1.25
2022-09-25T05:34:14.205Z,1.20
2022-09-25T05:35:24.289Z,2.33
2022-09-25T05:36:26.351Z,1.50
2022-09-25T05:37:28.346Z,1.90
2022-09-25T05:38:32.980Z,1.92
2022-09-25T05:39:35.773Z,1.83
2022-09-25T05:40:42.010Z,1.60
2022-09-25T05:41:44.090Z,2.05
2022-09-25T05:42:55.502Z,1.80
2022-09-25T05:43:58.255Z,1.80
2022-09-25T05:45:04.987Z,2.28
2022-09-25T05:47:12.640Z,1.85
2022-09-25T05:48:14.672Z,1.90
2022-09-25T05:49:16.666Z,1.80
2022-09-25T05:50:18.866Z,1.85
2022-09-25T05:51:21.084Z,1.90
2022-09-25T05:52:23.495Z,1.77
2022-09-25T05:53:27.268Z,1.92
2022-09-25T05:54:29.318Z,1.80
2022-09-25T05:55:32.649Z,2.08
2022-09-25T05:56:34.860Z,1.90
2022-09-25T05:57:41.830Z,2.15
2022-09-25T05:58:45.119Z,1.85
2022-09-25T05:59:47.895Z,2.15
2022-09-25T06:00:50.568Z,1.75
2022-09-25T06:01:52.738Z,2.00
2022-09-25T06:02:54.896Z,1.90
2022-09-25T06:03:57.007Z,2.00
2022-09-25T06:04:59.045Z,1.75
2022-09-25T06:06:02.553Z,2.10
2022-09-25T06:07:05.652Z,1.80
2022-09-25T06:08:08.773Z,1.85
2022-09-25T06:09:14.016Z,2.03
2022-09-25T06:10:16.684Z,5.28
2022-09-25T06:11:18.796Z,1.58
2022-09-25T06:12:24.548Z,1.50
2022-09-25T06:13:26.917Z,1.60
2022-09-25T06:14:31.046Z,1.30
2022-09-25T06:15:51.055Z,1.30
2022-09-25T06:16:54.663Z,1.40
2022-09-25T06:17:57.309Z,1.50
2022-09-25T06:19:00.347Z,1.52
2022-09-25T06:20:03.691Z,1.48
2022-09-25T06:21:06.210Z,1.75
2022-09-25T06:22:08.517Z,1.27
2022-09-25T06:23:10.625Z,1.40
2022-09-25T06:24:13.217Z,1.30
2022-09-25T06:25:16.178Z,1.20
2022-09-25T06:26:18.189Z,1.10
2022-09-25T06:27:20.173Z,1.30
2022-09-25T06:28:22.173Z,1.10
2022-09-25T06:29:24.256Z,1.23
2022-09-25T06:30:34.373Z,1.25
2022-09-25T06:31:39.578Z,1.10
2022-09-25T06:32:41.667Z,1.10
2022-09-25T06:33:44.319Z,1.10
2022-09-25T06:34:46.941Z,1.10
2022-09-25T06:35:50.308Z,1.48
2022-09-25T06:36:52.304Z,1.58
2022-09-25T06:37:58.580Z,1.38
2022-09-25T06:39:00.703Z,1.20
2022-09-25T06:40:03.254Z,1.38
2022-09-25T06:41:05.621Z,1.60
2022-09-25T06:42:07.675Z,1.20
2022-09-25T06:43:12.374Z,1.27
2022-09-25T06:44:14.537Z,1.60
2022-09-25T06:45:16.874Z,1.30
2022-09-25T06:46:23.198Z,1.10
2022-09-25T06:47:26.941Z,1.20
2022-09-25T06:48:30.366Z,1.05
2022-09-25T06:49:32.484Z,1.40
2022-09-25T06:50:49.922Z,1.30
2022-09-25T06:51:52.164Z,1.20
2022-09-25T06:52:54.250Z,1.20
2022-09-25T06:53:56.396Z,1.50
2022-09-25T06:54:59.602Z,1.40
2022-09-25T06:56:02.939Z,1.35
2022-09-25T06:57:05.173Z,1.38
2022-09-25T06:58:10.711Z,1.20
2022-09-25T06:59:12.896Z,1.40
2022-09-25T07:00:15.183Z,1.35
2022-09-25T07:01:17.537Z,1.60
2022-09-25T07:02:38.496Z,1.52
2022-09-25T07:03:46.889Z,1.40
2022-09-25T07:04:51.689Z,1.90
2022-09-25T07:05:53.765Z,1.50
2022-09-25T07:06:58.652Z,1.60
2022-09-25T07:08:01.462Z,1.80
2022-09-25T07:09:03.922Z,1.80
2022-09-25T07:10:06.749Z,1.85
2022-09-25T07:11:16.291Z,1.77
2022-09-25T07:12:18.596Z,1.77
2022-09-25T07:13:26.341Z,1.65
2022-09-25T07:14:28.359Z,1.60
2022-09-25T07:15:31.389Z,1.70
2022-09-25T07:16:34.829Z,1.67
2022-09-25T07:17:37.527Z,1.67
2022-09-25T07:18:39.744Z,1.83
2022-09-25T07:19:41.779Z,1.90
2022-09-25T07:20:45.922Z,1.90
2022-09-25T07:21:47.938Z,1.88
2022-09-25T07:22:50.211Z,1.77
2022-09-25T07:23:55.955Z,1.88
2022-09-25T07:24:58.540Z,1.55
2022-09-25T07:26:15.307Z,1.55
2022-09-25T07:27:17.332Z,1.60
2022-09-25T07:28:20.209Z,1.73
2022-09-25T07:29:22.188Z,1.50
2022-09-25T07:30:25.196Z,1.40
2022-09-25T07:31:30.520Z,4.72
2022-09-25T07:32:32.665Z,1.65
2022-09-25T07:33:35.451Z,1.63
2022-09-25T07:34:37.949Z,4.40
2022-09-25T07:35:40.154Z,2.10
2022-09-25T07:36:43.432Z,2.35
2022-09-25T07:37:46.070Z,1.70
2022-09-25T07:38:52.556Z,1.42
2022-09-25T07:39:54.739Z,1.30
2022-09-25T07:40:57.723Z,1.60
2022-09-25T07:42:00.065Z,1.63
2022-09-25T07:43:03.297Z,1.23
2022-09-25T07:44:29.223Z,1.55
2022-09-25T07:45:28.661Z,1.42
2022-09-25T07:46:31.744Z,1.30
2022-09-25T07:47:34.599Z,1.52
2022-09-25T07:48:36.934Z,1.30
2022-09-25T07:49:40.363Z,1.52
2022-09-25T07:50:42.705Z,1.50
2022-09-25T07:51:44.759Z,1.55
2022-09-25T07:52:46.959Z,2.30
2022-09-25T07:53:50.632Z,1.60
2022-09-25T07:54:52.838Z,2.45
2022-09-25T07:56:06.112Z,1.85
2022-09-25T07:57:08.834Z,1.60
2022-09-25T07:58:11.969Z,1.88
2022-09-25T07:59:13.922Z,1.73
2022-09-25T08:00:16.887Z,2.20
2022-09-25T08:01:19.091Z,2.40
2022-09-25T08:02:21.796Z,2.10
2022-09-25T08:03:26.486Z,2.30
2022-09-25T08:04:28.613Z,1.95
2022-09-25T08:05:33.135Z,1.65
2022-09-25T08:06:35.811Z,1.83
2022-09-25T08:07:37.856Z,1.60
2022-09-25T08:08:41.569Z,1.73
2022-09-25T08:09:43.611Z,2.08
2022-09-25T08:10:45.933Z,1.90
2022-09-25T08:11:48.007Z,2.05
2022-09-25T08:12:50.056Z,2.10
2022-09-25T08:13:52.613Z,2.40
2022-09-25T08:14:54.771Z,2.00
2022-09-25T08:15:56.871Z,4.22
2022-09-25T08:16:59.172Z,2.35
2022-09-25T08:18:01.492Z,2.15
2022-09-25T08:19:04.313Z,2.40
2022-09-25T08:20:07.593Z,2.45
2022-09-25T08:21:11.034Z,2.28
2022-09-25T08:22:13.252Z,2.10
2022-09-25T08:23:16.328Z,1.80
2022-09-25T08:24:18.528Z,2.50
2022-09-25T08:25:21.696Z,2.65
2022-09-25T08:26:28.378Z,2.70
2022-09-25T08:27:31.674Z,2.80
2022-09-25T08:28:34.708Z,2.65
2022-09-25T08:29:36.797Z,3.00
2022-09-25T08:30:43.755Z,3.13
2022-09-25T08:31:45.972Z,3.00
2022-09-25T08:32:47.982Z,3.10
2022-09-25T08:33:50.654Z,3.03
2022-09-25T08:34:55.596Z,3.03
2022-09-25T08:36:00.306Z,3.30
2022-09-25T08:37:02.314Z,3.55
2022-09-25T08:38:04.850Z,3.83
2022-09-25T08:39:07.046Z,3.05
2022-09-25T08:40:21.791Z,3.78
2022-09-25T08:41:28.993Z,4.20
2022-09-25T08:42:37.134Z,4.50
2022-09-25T08:43:52.926Z,3.83
2022-09-25T08:45:21.696Z,3.60
2022-09-25T08:46:59.970Z,3.42
2022-09-25T08:48:21.201Z,3.45
2022-09-25T08:49:27.172Z,3.97
2022-09-25T08:50:30.128Z,4.00
2022-09-25T08:51:37.110Z,4.25
2022-09-25T08:52:43.241Z,4.10
2022-09-25T08:53:46.422Z,3.95
2022-09-25T08:54:50.968Z,3.85
2022-09-25T08:56:12.867Z,5.10
2022-09-25T08:57:39.545Z,5.00
2022-09-25T08:59:09.521Z,5.30
2022-09-25T09:00:21.329Z,5.05
2022-09-25T09:01:28.006Z,6.50
2022-09-25T09:02:45.747Z,6.38
2022-09-25T09:03:58.086Z,6.88
2022-09-25T09:05:02.096Z,6.50
2022-09-25T09:06:12.987Z,7.13
2022-09-25T09:07:38.365Z,6.53
2022-09-25T09:08:44.411Z,5.65
2022-09-25T09:09:51.368Z,5.53
2022-09-25T09:10:59.456Z,6.15
2022-09-25T09:12:13.593Z,5.25
2022-09-25T09:13:19.510Z,4.38
2022-09-25T09:14:26.034Z,4.22
2022-09-25T09:15:41.212Z,3.92
2022-09-25T09:16:58.819Z,3.72
2022-09-25T09:18:09.142Z,4.40
2022-09-25T09:19:12.968Z,4.20
2022-09-25T09:20:18.837Z,4.72
2022-09-25T09:21:38.617Z,4.60
2022-09-25T09:22:48.520Z,5.03
2022-09-25T09:24:03.840Z,5.25
2022-09-25T09:25:26.537Z,4.18
2022-09-25T09:26:40.134Z,3.63
2022-09-25T09:28:01.161Z,2.95
2022-09-25T09:29:24.090Z,3.40
2022-09-25T09:30:35.539Z,3.40
2022-09-25T09:31:40.281Z,2.90
2022-09-25T09:33:03.575Z,2.80
2022-09-25T09:35:00.932Z,2.80
2022-09-25T09:36:16.764Z,3.35
2022-09-25T09:37:39.873Z,3.00
2022-09-25T09:39:23.311Z,3.50
2022-09-25T09:40:35.143Z,3.55
2022-09-25T09:41:51.754Z,4.43
2022-09-25T09:43:05.780Z,3.75
2022-09-25T09:44:27.227Z,3.90
2022-09-25T09:46:03.527Z,3.97
2022-09-25T09:47:32.629Z,5.28
2022-09-25T09:48:53.600Z,4.40
2022-09-25T09:50:04.408Z,3.95
2022-09-25T09:51:19.364Z,4.00
2022-09-25T09:52:37.188Z,4.05
2022-09-25T09:53:45.182Z,3.60
2022-09-25T09:55:14.200Z,2.97
2022-09-25T09:56:23.396Z,3.40
2022-09-25T09:57:31.291Z,3.80
2022-09-25T09:58:43.292Z,3.60
2022-09-25T10:00:04.911Z,3.25
2022-09-25T10:01:40.423Z,3.35
2022-09-25T10:02:51.015Z,2.80
2022-09-25T10:04:11.874Z,2.85
2022-09-25T10:05:34.309Z,3.78
2022-09-25T10:06:43.597Z,3.60
2022-09-25T10:07:48.431Z,3.20
2022-09-25T10:08:57.909Z,2.85
2022-09-25T10:10:01.412Z,3.65
2022-09-25T10:11:27.227Z,3.47
2022-09-25T10:12:34.978Z,3.53
2022-09-25T10:13:39.393Z,4.20
2022-09-25T10:14:46.038Z,4.03
2022-09-25T10:15:56.561Z,3.83
2022-09-25T10:16:59.008Z,3.70
2022-09-25T10:18:03.494Z,3.80
2022-09-25T10:19:26.246Z,3.70
2022-09-25T10:20:50.904Z,4.38
2022-09-25T10:22:03.054Z,4.07
2022-09-25T10:23:22.638Z,4.43
2022-09-25T10:24:52.013Z,3.38
2022-09-25T10:25:56.185Z,4.22
2022-09-25T10:27:23.101Z,4.75
2022-09-25T10:28:32.478Z,4.68
2022-09-25T10:29:34.437Z,4.80
2022-09-25T10:30:37.325Z,6.28
2022-09-25T10:31:41.168Z,4.95
2022-09-25T10:32:47.991Z,3.85
2022-09-25T10:34:05.560Z,4.30
2022-09-25T10:35:16.128Z,4.72
2022-09-25T10:36:32.511Z,5.25
2022-09-25T10:37:36.095Z,5.50
2022-09-25T10:38:43.803Z,4.50
2022-09-25T10:40:01.991Z,4.60
2022-09-25T10:41:18.024Z,6.50
2022-09-25T10:42:37.691Z,6.57
2022-09-25T10:44:00.247Z,4.28
2022-09-25T10:45:26.749Z,3.97
2022-09-25T10:46:48.575Z,3.60
2022-09-25T10:48:10.275Z,4.20
2022-09-25T10:50:03.050Z,4.63
2022-09-25T10:51:11.326Z,4.30
2022-09-25T10:52:16.166Z,4.00
2022-09-25T10:53:30.474Z,3.90
2022-09-25T10:54:33.799Z,4.43
2022-09-25T10:55:39.792Z,3.95
2022-09-25T10:56:42.691Z,4.15
2022-09-25T10:57:48.035Z,4.20
2022-09-25T10:58:58.310Z,4.68
2022-09-25T11:00:02.797Z,4.00
2022-09-25T11:01:13.854Z,4.30
2022-09-25T11:02:41.400Z,4.20
2022-09-25T11:03:48.882Z,4.28
2022-09-25T11:04:54.247Z,4.85
2022-09-25T11:06:05.579Z,4.55
2022-09-25T11:07:16.900Z,5.30
2022-09-25T11:08:20.072Z,4.28
2022-09-25T11:09:25.188Z,4.20
2022-09-25T11:10:45.486Z,3.92
2022-09-25T11:11:49.991Z,4.10
2022-09-25T11:12:52.718Z,3.75
2022-09-25T11:14:00.313Z,4.40
2022-09-25T11:15:05.995Z,3.65
2022-09-25T11:16:12.177Z,4.30
2022-09-25T11:17:39.505Z,4.38
2022-09-25T11:18:45.714Z,4.40
2022-09-25T11:20:14.897Z,4.63
2022-09-25T11:21:27.067Z,4.22
2022-09-25T11:22:37.770Z,4.60
2022-09-25T11:24:03.556Z,4.45
2022-09-25T11:25:16.017Z,4.00
2022-09-25T11:26:25.923Z,3.60
2022-09-25T11:27:41.259Z,4.20
2022-09-25T11:29:17.750Z,3.85
2022-09-25T11:30:22.854Z,3.63
2022-09-25T11:31:35.800Z,3.75
2022-09-25T11:32:52.867Z,4.28
2022-09-25T11:34:01.160Z,5.18
2022-09-25T11:35:35.897Z,4.47
2022-09-25T11:36:57.186Z,4.90
2022-09-25T11:38:17.414Z,4.85
2022-09-25T11:40:08.567Z,5.10
2022-09-25T11:41:23.269Z,4.63
2022-09-25T11:43:02.204Z,4.55
2022-09-25T11:44:47.548Z,4.57
2022-09-25T11:46:11.932Z,4.53
2022-09-25T11:47:36.803Z,4.40
2022-09-25T11:49:01.092Z,4.65
2022-09-25T11:50:04.272Z,5.03
2022-09-25T11:51:57.046Z,4.93
2022-09-25T11:53:34.584Z,5.13
2022-09-25T11:54:46.298Z,4.88
2022-09-25T11:56:22.178Z,4.68
2022-09-25T11:57:33.610Z,4.47
2022-09-25T11:59:00.182Z,5.43
2022-09-25T12:00:20.875Z,5.95
2022-09-25T12:01:39.824Z,7.22
2022-09-25T12:03:03.493Z,5.93
2022-09-25T12:04:24.896Z,5.60
2022-09-25T12:05:41.193Z,5.00
2022-09-25T12:07:12.081Z,4.75
2022-09-25T12:08:36.457Z,4.43
2022-09-25T12:09:44.241Z,5.05
2022-09-25T12:11:11.907Z,4.70
2022-09-25T12:12:32.538Z,5.05
2022-09-25T12:14:03.150Z,5.03
2022-09-25T12:15:24.095Z,6.28
2022-09-25T12:16:28.967Z,7.57
2022-09-25T12:17:46.331Z,6.80
2022-09-25T12:19:08.437Z,5.97
2022-09-25T12:20:24.671Z,5.55
2022-09-25T12:21:26.696Z,5.15
2022-09-25T12:23:02.933Z,5.70
2022-09-25T12:24:40.393Z,6.07
2022-09-25T12:26:06.956Z,7.10
2022-09-25T12:27:33.471Z,5.60
2022-09-25T12:28:53.000Z,5.50
2022-09-25T12:30:16.211Z,6.45
2022-09-25T12:31:52.724Z,6.57
2022-09-25T12:33:13.050Z,6.18
2022-09-25T12:34:27.594Z,6.55
2022-09-25T12:36:16.344Z,6.43
2022-09-25T12:38:45.222Z,5.80
2022-09-25T12:39:52.246Z,6.00
2022-09-25T12:41:05.795Z,6.38
2022-09-25T12:42:38.855Z,6.32
2022-09-25T12:43:47.859Z,6.55
2022-09-25T12:46:37.932Z,6.72
2022-09-25T12:47:47.331Z,6.65
2022-09-25T12:48:56.492Z,7.55
2022-09-25T12:50:08.116Z,7.38
2022-09-25T12:51:35.262Z,6.43
2022-09-25T12:52:58.098Z,6.65
2022-09-25T12:54:15.951Z,10.23
2022-09-25T12:55:31.848Z,8.77
2022-09-25T12:56:42.750Z,8.30
2022-09-25T12:57:56.437Z,9.80
2022-09-25T12:59:11.243Z,11.10
2022-09-25T13:00:28.617Z,9.40
2022-09-25T13:01:46.489Z,9.27
2022-09-25T13:03:01.056Z,8.35
2022-09-25T13:04:48.754Z,8.13
2022-09-25T13:06:09.236Z,8.32
2022-09-25T13:07:30.354Z,8.30
2022-09-25T13:09:01.727Z,7.65
2022-09-25T13:10:47.713Z,7.68
2022-09-25T13:11:56.235Z,7.78
2022-09-25T13:13:03.498Z,7.40
2022-09-25T13:14:13.431Z,7.03
2022-09-25T13:15:25.793Z,7.55
2022-09-25T13:16:28.200Z,6.88
2022-09-25T13:17:31.848Z,6.65
2022-09-25T13:18:37.051Z,6.30
2022-09-25T13:19:39.547Z,6.82
2022-09-25T13:20:49.281Z,7.00
2022-09-25T13:21:52.199Z,6.53
2022-09-25T13:23:00.083Z,6.57
2022-09-25T13:24:09.245Z,6.68
2022-09-25T13:25:16.700Z,6.53
2022-09-25T13:26:27.312Z,6.78
2022-09-25T13:27:44.111Z,7.90
2022-09-25T13:28:59.528Z,7.00
2022-09-25T13:30:02.044Z,7.18
2022-09-25T13:31:10.150Z,7.88
2022-09-25T13:32:19.166Z,7.05
2022-09-25T13:34:24.830Z,7.30
2022-09-25T13:35:27.565Z,7.30
2022-09-25T13:36:46.353Z,7.05
2022-09-25T13:39:18.398Z,7.57
2022-09-25T13:42:00.485Z,8.05
2022-09-25T13:43:25.679Z,7.43
2022-09-25T13:44:43.774Z,8.10
2022-09-25T13:45:45.844Z,8.15
2022-09-25T13:46:47.953Z,8.00
2022-09-25T13:48:08.929Z,8.30
2022-09-25T13:49:34.641Z,8.05
2022-09-25T13:50:51.733Z,7.80
2022-09-25T13:51:53.818Z,7.88
2022-09-25T13:53:17.707Z,8.05
2022-09-25T13:54:28.412Z,7.75
2022-09-25T13:55:32.342Z,9.30
2022-09-25T13:56:34.473Z,9.48
2022-09-25T13:58:03.565Z,9.57
2022-09-25T13:59:15.342Z,10.75
2022-09-25T14:00:17.819Z,13.63
2022-09-25T14:01:47.756Z,12.18
2022-09-25T14:02:54.576Z,11.73
2022-09-25T14:03:57.361Z,9.25
2022-09-25T14:05:00.280Z,8.95
2022-09-25T14:06:03.505Z,9.18
2022-09-25T14:07:40.581Z,9.68
2022-09-25T14:08:45.213Z,8.15
2022-09-25T14:09:53.985Z,8.75
2022-09-25T14:10:57.408Z,8.82
2022-09-25T14:12:02.034Z,8.75
2022-09-25T14:13:07.180Z,8.18
2022-09-25T14:14:17.035Z,7.68
2022-09-25T14:15:35.696Z,7.68
2022-09-25T14:16:46.593Z,7.75
2022-09-25T14:17:52.490Z,8.90
2022-09-25T14:18:58.299Z,8.52
2022-09-25T14:20:04.222Z,10.02
2022-09-25T14:21:07.887Z,9.45
2022-09-25T14:22:23.266Z,9.43
2022-09-25T14:23:33.298Z,8.82
2022-09-25T14:24:45.809Z,9.40
2022-09-25T14:25:58.530Z,8.70
2022-09-25T14:27:02.282Z,8.88
2022-09-25T14:28:24.707Z,9.55
2022-09-25T14:29:47.174Z,9.60
2022-09-25T14:31:05.852Z,8.98
2022-09-25T14:32:54.621Z,11.40
2022-09-25T14:35:15.461Z,9.63
2022-09-25T14:36:36.412Z,9.35
2022-09-25T14:37:39.836Z,10.27
2022-09-25T14:39:00.234Z,9.70
2022-09-25T14:40:11.832Z,9.25
2022-09-25T14:41:53.234Z,9.73
2022-09-25T14:43:29.312Z,9.18
2022-09-25T14:44:44.937Z,8.93
2022-09-25T14:46:00.965Z,9.68
2022-09-25T14:47:04.207Z,12.18
2022-09-25T14:48:17.347Z,9.25
2022-09-25T14:49:19.313Z,8.65
2022-09-25T14:50:25.450Z,8.52
2022-09-25T14:51:36.821Z,8.73
2022-09-25T14:52:40.179Z,8.10
2022-09-25T14:53:49.628Z,8.55
2022-09-25T14:54:55.395Z,7.70
2022-09-25T14:55:59.284Z,8.10
2022-09-25T14:57:04.180Z,9.07
2022-09-25T14:58:18.865Z,8.40
2022-09-25T14:59:40.410Z,8.32
2022-09-25T15:00:48.116Z,8.30
2022-09-25T15:01:54.886Z,8.30
2022-09-25T15:02:58.492Z,8.10
2022-09-25T15:04:04.558Z,8.20
2022-09-25T15:05:26.663Z,7.38
2022-09-25T15:06:33.045Z,7.57
2022-09-25T15:07:42.743Z,9.30
2022-09-25T15:08:44.714Z,28.20
2022-09-25T15:09:59.754Z,15.20
2022-09-25T15:11:10.355Z,12.82
2022-09-25T15:12:21.941Z,11.43
2022-09-25T15:13:24.173Z,27.80
2022-09-25T15:14:27.082Z,46.08
2022-09-25T15:15:29.152Z,37.50
2022-09-25T15:16:50.131Z,16.92
2022-09-25T15:17:59.458Z,11.55
2022-09-25T15:19:09.985Z,23.48
2022-09-25T15:20:15.159Z,14.02
2022-09-25T15:21:41.258Z,13.32
2022-09-25T15:22:48.817Z,9.43
2022-09-25T15:23:56.007Z,9.30
2022-09-25T15:25:04.183Z,8.80
2022-09-25T15:26:06.547Z,8.40
2022-09-25T15:27:09.215Z,8.55
2022-09-25T15:28:17.121Z,8.65
2022-09-25T15:29:22.749Z,8.98
2022-09-25T15:30:27.292Z,8.88
2022-09-25T15:31:37.855Z,8.73
2022-09-25T15:32:40.780Z,8.95
2022-09-25T15:34:01.724Z,9.70
2022-09-25T15:35:28.232Z,9.82
2022-09-25T15:36:30.714Z,9.98
2022-09-25T15:37:34.026Z,8.57
2022-09-25T15:38:38.060Z,9.30
2022-09-25T15:39:44.397Z,8.80
2022-09-25T15:40:56.490Z,9.10
2022-09-25T15:41:58.459Z,8.70
2022-09-25T15:43:02.112Z,8.63
2022-09-25T15:44:22.719Z,8.80